Time;durP1;ratioP1;P1;durP2;ratioP2;P2;SDS_P1;SDS_P2;PMS_P1;PMS_P2;Temp;Humidity;BMP_temperature;BMP_pressure;BME280_temperature;BME280_humidity;BME280_pressure;Samples;Min_cycle;Max_cycle;Signal;HPM_P1;HPM_P2
2021/12/10 00:00:42;;;;;;;9.43;4.63;;;3.30;99.90;;;;;;12461758;28;20621;-91
2021/12/10 00:06:52;;;;;;;10.48;4.80;;;3.30;99.90;;;;;;12462023;28;20106;-90
2021/12/10 00:12:54;;;;;;;9.98;5.60;;;3.20;99.90;;;;;;12477875;28;20080;-90
2021/12/10 00:19:10;;;;;;;6.68;4.47;;;3.10;99.90;;;;;;12478554;28;21150;-91
2021/12/10 00:25:18;;;;;;;8.52;4.97;;;3.10;99.90;;;;;;12470059;28;20141;-91
2021/12/10 00:37:32;;;;;;;10.48;5.05;;;3.10;99.90;;;;;;12481968;28;20067;-90
2021/12/10 00:43:35;;;;;;;9.45;5.60;;;3.10;99.90;;;;;;12461164;28;20071;-90
2021/12/10 00:49:38;;;;;;;8.57;5.53;;;3.20;99.90;;;;;;12477374;28;20059;-90
2021/12/10 00:55:40;;;;;;;8.82;5.28;;;3.30;99.90;;;;;;12475956;28;20045;-90
2021/12/10 01:01:45;;;;;;;9.30;5.50;;;3.30;99.90;;;;;;12461654;28;20051;-91
2021/12/10 01:07:47;;;;;;;7.32;5.20;;;3.30;99.90;;;;;;12465609;28;20045;-90
2021/12/10 01:13:53;;;;;;;10.23;5.43;;;3.30;99.90;;;;;;12463215;28;20076;-89
2021/12/10 01:26:36;;;;;;;8.00;5.30;;;3.20;99.90;;;;;;12477078;28;20044;-91
2021/12/10 01:32:44;;;;;;;9.85;6.07;;;3.30;99.90;;;;;;12460083;28;20095;-90
2021/12/10 01:38:51;;;;;;;10.02;6.07;;;3.20;99.90;;;;;;12471855;28;20105;-90
2021/12/10 01:44:57;;;;;;;11.35;7.10;;;3.20;99.90;;;;;;12465048;28;20350;-92
2021/12/10 01:51:02;;;;;;;9.90;6.18;;;3.10;99.90;;;;;;12453138;28;20049;-89
2021/12/10 01:57:05;;;;;;;8.70;6.22;;;3.20;99.90;;;;;;12453862;28;20568;-90
2021/12/10 02:03:08;;;;;;;10.83;6.73;;;3.20;99.90;;;;;;12474545;28;20051;-90
2021/12/10 02:09:13;;;;;;;10.35;6.95;;;3.10;99.90;;;;;;12467556;28;20053;-88
2021/12/10 02:15:16;;;;;;;11.18;7.00;;;3.10;99.90;;;;;;12473223;28;20053;-91
2021/12/10 02:21:21;;;;;;;13.00;6.68;;;3.10;99.90;;;;;;12478018;28;20144;-91
2021/12/10 02:27:23;;;;;;;11.25;6.88;;;3.10;99.90;;;;;;12459047;28;20076;-89
2021/12/10 02:33:26;;;;;;;12.10;7.15;;;3.10;99.90;;;;;;12457591;28;20523;-90
2021/12/10 02:39:28;;;;;;;14.75;7.68;;;3.10;99.90;;;;;;12476334;28;20470;-91
2021/12/10 02:45:30;;;;;;;14.05;8.05;;;3.10;99.90;;;;;;12476099;28;20134;-90
2021/12/10 02:51:34;;;;;;;12.48;7.85;;;3.10;99.90;;;;;;12467520;28;20164;-90
2021/12/10 02:57:38;;;;;;;17.38;8.98;;;3.10;99.90;;;;;;12473121;28;20056;-90
2021/12/10 03:03:43;;;;;;;14.40;8.73;;;3.10;99.90;;;;;;12462972;28;20538;-90
2021/12/10 03:09:49;;;;;;;14.48;9.35;;;3.00;99.90;;;;;;12466581;28;20132;-90
2021/12/10 03:15:53;;;;;;;13.77;8.35;;;3.00;99.90;;;;;;12482465;28;20045;-91
2021/12/10 03:21:55;;;;;;;14.95;8.55;;;2.90;99.90;;;;;;12465212;28;20049;-89
2021/12/10 03:27:57;;;;;;;13.18;8.55;;;3.00;99.90;;;;;;12481049;28;20460;-92
2021/12/10 03:34:00;;;;;;;12.43;8.32;;;3.00;99.90;;;;;;12461554;28;20417;-91
2021/12/10 03:40:07;;;;;;;14.35;8.68;;;3.00;99.90;;;;;;12479308;28;20041;-90
2021/12/10 03:46:09;;;;;;;14.15;8.38;;;3.00;99.90;;;;;;12489929;28;20039;-90
2021/12/10 03:52:13;;;;;;;13.63;7.80;;;3.00;99.90;;;;;;12471824;28;20081;-89
2021/12/10 03:58:17;;;;;;;12.13;7.55;;;2.90;99.90;;;;;;12469869;28;20132;-89
2021/12/10 04:04:24;;;;;;;11.88;7.22;;;2.90;99.90;;;;;;12450453;28;20475;-88
2021/12/10 04:10:27;;;;;;;11.57;7.25;;;2.90;99.90;;;;;;12487310;28;20561;-91
2021/12/10 04:16:29;;;;;;;9.95;6.45;;;2.90;99.90;;;;;;12458439;28;20057;-90
2021/12/10 04:22:33;;;;;;;11.63;7.32;;;2.90;99.90;;;;;;12477801;28;20049;-89
2021/12/10 04:28:35;;;;;;;13.65;7.63;;;2.90;99.90;;;;;;12465595;28;20053;-91
2021/12/10 04:34:39;;;;;;;10.25;6.95;;;2.80;99.90;;;;;;12456934;28;20130;-90
2021/12/10 04:40:42;;;;;;;11.32;7.63;;;2.70;99.90;;;;;;12474744;28;20056;-89
2021/12/10 04:46:45;;;;;;;9.70;6.80;;;2.60;99.90;;;;;;12464201;28;20057;-91
2021/12/10 04:52:47;;;;;;;10.35;6.45;;;2.50;99.90;;;;;;12462106;28;20502;-89
2021/12/10 04:58:50;;;;;;;8.88;6.13;;;2.50;99.90;;;;;;12456881;28;20630;-89
2021/12/10 05:04:56;;;;;;;10.05;6.32;;;2.60;99.90;;;;;;12454988;28;20592;-90
2021/12/10 05:11:00;;;;;;;8.13;5.65;;;2.50;99.90;;;;;;12463161;28;20053;-89
2021/12/10 05:17:07;;;;;;;10.38;5.75;;;2.50;99.90;;;;;;12464347;28;20455;-90
2021/12/10 05:23:10;;;;;;;10.05;6.13;;;2.50;99.90;;;;;;12473894;28;20103;-90
2021/12/10 05:29:12;;;;;;;9.52;6.15;;;2.50;99.90;;;;;;12456276;28;20057;-89
2021/12/10 05:35:14;;;;;;;10.82;6.38;;;2.60;99.90;;;;;;12456518;28;20076;-91
2021/12/10 05:41:17;;;;;;;9.32;5.32;;;2.60;99.90;;;;;;12461157;28;20358;-90
2021/12/10 05:47:20;;;;;;;;;;;2.70;99.90;;;;;;12475272;28;20333;-88
2021/12/10 05:53:23;;;;;;;8.13;4.57;;;2.80;99.90;;;;;;12457739;28;19932;-90
2021/12/10 05:59:25;;;;;;;7.43;4.68;;;2.80;99.90;;;;;;12454208;28;20053;-90
2021/12/10 06:05:31;;;;;;;11.13;4.45;;;2.80;99.90;;;;;;12456576;28;20495;-90
2021/12/10 06:11:35;;;;;;;9.27;4.20;;;2.80;99.90;;;;;;12463998;28;20068;-89
2021/12/10 06:17:36;;;;;;;8.65;4.60;;;2.70;99.90;;;;;;12467348;28;20918;-89
2021/12/10 06:23:40;;;;;;;4.85;3.15;;;2.70;99.90;;;;;;12466948;28;20570;-89
2021/12/10 06:29:42;;;;;;;6.28;3.22;;;2.60;99.90;;;;;;12480641;28;20053;-88
2021/12/10 06:35:47;;;;;;;6.07;3.53;;;2.60;99.90;;;;;;12462850;28;20049;-89
2021/12/10 06:41:51;;;;;;;7.53;3.55;;;2.60;99.90;;;;;;12465262;28;20687;-90
2021/12/10 06:47:58;;;;;;;7.93;4.30;;;2.50;99.90;;;;;;12465578;28;20084;-88
2021/12/10 06:54:00;;;;;;;9.23;5.18;;;2.40;99.90;;;;;;12478799;28;20136;-87
2021/12/10 07:00:09;;;;;;;8.88;4.65;;;2.30;99.90;;;;;;12463442;28;20053;-89
2021/12/10 07:06:12;;;;;;;7.15;4.35;;;2.40;99.90;;;;;;12464760;28;20053;-87
2021/12/10 07:12:14;;;;;;;8.63;4.55;;;2.40;99.90;;;;;;12467536;28;20053;-90
2021/12/10 07:18:19;;;;;;;7.63;4.40;;;2.40;99.90;;;;;;12477693;28;20428;-89
2021/12/10 07:24:21;;;;;;;7.65;4.07;;;2.20;99.90;;;;;;12465204;28;20502;-90
2021/12/10 07:30:26;;;;;;;7.30;4.28;;;2.30;99.90;;;;;;12467130;28;20060;-89
2021/12/10 07:36:31;;;;;;;8.68;4.15;;;2.20;99.90;;;;;;12483215;28;20079;-90
2021/12/10 07:42:34;;;;;;;12.65;5.65;;;2.20;99.90;;;;;;12479371;28;20152;-89
2021/12/10 07:48:36;;;;;;;8.25;3.80;;;2.30;99.90;;;;;;12468124;28;20060;-91
2021/12/10 07:54:40;;;;;;;7.32;3.92;;;2.30;99.90;;;;;;12461852;28;20052;-88
2021/12/10 08:00:47;;;;;;;8.55;3.85;;;2.40;99.90;;;;;;12482359;28;20445;-87
2021/12/10 08:06:51;;;;;;;9.60;3.55;;;2.50;99.90;;;;;;12464530;28;20061;-90
2021/12/10 08:12:53;;;;;;;6.43;3.63;;;2.50;99.90;;;;;;12464339;28;20055;-91
2021/12/10 08:18:56;;;;;;;6.53;3.47;;;2.60;99.90;;;;;;12473111;28;20410;-90
2021/12/10 08:24:58;;;;;;;6.57;3.60;;;2.70;99.90;;;;;;12468244;28;20115;-90
2021/12/10 08:31:02;;;;;;;9.82;3.10;;;2.80;99.90;;;;;;12456868;28;20051;-90
2021/12/10 08:37:05;;;;;;;6.97;3.00;;;2.90;99.90;;;;;;12471345;28;20064;-89
2021/12/10 08:43:08;;;;;;;9.77;2.70;;;3.00;99.90;;;;;;12456150;28;20068;-89
2021/12/10 08:49:13;;;;;;;;;;;3.10;99.90;;;;;;12460478;28;20053;-89
2021/12/10 08:55:17;;;;;;;7.82;2.55;;;3.10;99.90;;;;;;12462066;28;20055;-89
2021/12/10 09:01:26;;;;;;;5.03;2.20;;;3.30;99.90;;;;;;12476632;28;20053;-88
2021/12/10 09:07:31;;;;;;;5.35;2.42;;;3.40;99.90;;;;;;12468690;28;20053;-90
2021/12/10 09:13:33;;;;;;;5.75;2.45;;;3.40;99.90;;;;;;12457539;28;20192;-91
2021/12/10 09:19:35;;;;;;;8.43;2.30;;;3.50;99.90;;;;;;12461586;28;20117;-90
2021/12/10 09:25:38;;;;;;;6.57;2.42;;;3.50;99.90;;;;;;12461015;28;20337;-89
2021/12/10 09:31:43;;;;;;;4.88;2.22;;;3.60;99.90;;;;;;12457669;28;20053;-89
2021/12/10 09:37:49;;;;;;;5.60;2.22;;;3.70;99.90;;;;;;12462507;28;20057;-90
2021/12/10 09:43:52;;;;;;;7.10;2.10;;;3.70;99.90;;;;;;12453048;28;20053;-91
2021/12/10 09:49:55;;;;;;;5.53;2.28;;;3.80;99.90;;;;;;12462432;28;20419;-91
2021/12/10 09:55:59;;;;;;;5.47;2.25;;;3.90;99.90;;;;;;12457458;28;20041;-91
2021/12/10 10:02:02;;;;;;;7.45;2.42;;;4.10;99.90;;;;;;12453628;28;20055;-91
2021/12/10 10:08:09;;;;;;;4.30;1.80;;;4.10;99.90;;;;;;12466323;28;20060;-89
2021/12/10 10:14:12;;;;;;;5.43;2.28;;;4.00;99.90;;;;;;12462549;28;20502;-89
2021/12/10 10:20:23;;;;;;;9.35;2.55;;;4.10;99.90;;;;;;12472521;28;22442;-89
2021/12/10 10:26:44;;;;;;;5.43;2.25;;;4.50;99.90;;;;;;12470495;28;20160;-91
2021/12/10 10:32:48;;;;;;;4.85;2.58;;;4.40;99.90;;;;;;12459863;28;20052;-91
2021/12/10 10:39:09;;;;;;;4.13;2.20;;;4.20;99.90;;;;;;12457833;28;20059;-90
2021/12/10 10:45:23;;;;;;;3.30;1.85;;;4.20;99.90;;;;;;12470752;28;20050;-90
2021/12/10 10:51:29;;;;;;;4.72;2.00;;;4.20;99.90;;;;;;12470691;28;20144;-89
2021/12/10 10:57:32;;;;;;;5.07;1.83;;;4.30;99.90;;;;;;12474948;28;20095;-92
2021/12/10 11:03:43;;;;;;;7.32;2.13;;;4.30;99.90;;;;;;12464095;28;20157;-90
2021/12/10 11:09:54;;;;;;;4.20;1.60;;;4.30;99.90;;;;;;12465949;28;20098;-91
2021/12/10 11:16:05;;;;;;;5.70;1.63;;;4.40;99.90;;;;;;12456084;28;20520;-86
2021/12/10 11:22:13;;;;;;;7.05;1.77;;;4.30;99.90;;;;;;12452893;28;20470;-90
2021/12/10 11:28:20;;;;;;;4.25;1.52;;;4.30;99.90;;;;;;12460676;28;20103;-89
2021/12/10 11:34:43;;;;;;;6.18;1.77;;;4.50;99.90;;;;;;12465347;28;20052;-90
2021/12/10 11:41:15;;;;;;;3.40;1.70;;;4.60;99.90;;;;;;12472621;28;20053;-89
2021/12/10 11:47:28;;;;;;;3.72;1.60;;;4.50;99.90;;;;;;12474247;28;20091;-90
2021/12/10 11:54:01;;;;;;;6.15;1.77;;;4.70;99.90;;;;;;12429595;28;20057;-90
2021/12/10 12:00:17;;;;;;;6.60;1.50;;;4.60;99.90;;;;;;12431382;28;20235;-90
2021/12/10 12:06:20;;;;;;;6.18;1.73;;;4.40;99.90;;;;;;12437687;28;20413;-90
2021/12/10 12:12:30;;;;;;;5.05;1.65;;;4.20;99.90;;;;;;12431261;28;20050;-91
2021/12/10 12:18:46;;;;;;;4.18;1.35;;;4.10;99.90;;;;;;12459243;28;20053;-90
2021/12/10 12:25:08;;;;;;;4.38;1.63;;;4.10;99.90;;;;;;12465731;28;20115;-91
2021/12/10 12:31:18;;;;;;;3.05;1.70;;;4.40;99.90;;;;;;12456112;28;20049;-91
2021/12/10 12:37:24;;;;;;;3.97;1.40;;;4.40;99.90;;;;;;12432495;28;20118;-89
2021/12/10 12:44:07;;;;;;;4.38;1.50;;;4.70;99.90;;;;;;12429814;28;20468;-90
2021/12/10 12:50:32;;;;;;;5.05;1.65;;;5.00;99.90;;;;;;12445949;28;20056;-91
2021/12/10 12:56:41;;;;;;;4.15;1.67;;;4.90;99.90;;;;;;12501524;28;20122;-91
2021/12/10 13:03:31;;;;;;;5.03;1.60;;;4.60;99.90;;;;;;12491087;28;20049;-90
2021/12/10 13:09:56;;;;;;;4.75;1.33;;;4.70;99.90;;;;;;12467641;28;20081;-91
2021/12/10 13:15:58;;;;;;;3.88;1.30;;;4.60;99.90;;;;;;12488752;28;20583;-91
2021/12/10 13:22:07;;;;;;;3.95;1.30;;;4.80;99.90;;;;;;12479282;28;20057;-92
2021/12/10 13:28:13;;;;;;;4.10;1.08;;;4.90;99.90;;;;;;12466437;28;20136;-90
2021/12/10 13:34:19;;;;;;;4.85;1.20;;;4.90;99.90;;;;;;12463737;28;20052;-90
2021/12/10 13:40:22;;;;;;;4.22;1.10;;;4.80;99.90;;;;;;12460327;28;20118;-92
2021/12/10 13:46:29;;;;;;;3.72;1.17;;;4.70;99.90;;;;;;12474519;28;20057;-91
2021/12/10 13:53:04;;;;;;;5.28;1.50;;;4.60;99.90;;;;;;12465628;28;20053;-90
2021/12/10 13:59:34;;;;;;;4.22;1.50;;;4.60;99.90;;;;;;12480133;28;20095;-89
2021/12/10 14:06:03;;;;;;;6.78;1.35;;;4.50;99.90;;;;;;12459198;28;20054;-89
2021/12/10 14:12:29;;;;;;;6.10;1.42;;;4.40;99.90;;;;;;12479849;28;20509;-92
2021/12/10 14:18:39;;;;;;;6.82;1.92;;;4.20;99.90;;;;;;12460006;28;20049;-89
2021/12/10 14:25:19;;;;;;;6.60;1.50;;;4.10;99.90;;;;;;12475859;28;20089;-92
2021/12/10 14:31:47;;;;;;;4.18;1.40;;;3.90;99.90;;;;;;12467090;28;20111;-90
2021/12/10 14:37:59;;;;;;;4.85;1.20;;;3.80;99.90;;;;;;12488351;28;20053;-91
2021/12/10 14:44:28;;;;;;;3.88;1.52;;;3.60;99.90;;;;;;12466583;28;20071;-90
2021/12/10 14:50:33;;;;;;;6.03;1.67;;;3.40;99.90;;;;;;12475407;28;20053;-92
2021/12/10 14:57:01;;;;;;;4.70;1.70;;;3.30;99.90;;;;;;12484143;28;20515;-91
2021/12/10 15:03:27;;;;;;;11.77;2.35;;;3.10;99.90;;;;;;12470734;28;20041;-90
2021/12/10 15:10:01;;;;;;;10.73;2.78;;;2.90;99.90;;;;;;12475878;28;20053;-90
2021/12/10 15:16:33;;;;;;;7.22;2.55;;;2.80;99.90;;;;;;12471809;28;20449;-90
2021/12/10 15:22:38;;;;;;;5.70;2.20;;;2.60;99.90;;;;;;12472159;28;20436;-89
2021/12/10 15:28:42;;;;;;;6.50;2.72;;;2.40;99.90;;;;;;12464720;28;20049;-89
2021/12/10 15:34:52;;;;;;;8.10;3.28;;;2.30;99.90;;;;;;12484608;28;20225;-91
2021/12/10 15:41:22;;;;;;;10.70;3.88;;;2.20;99.90;;;;;;12471897;28;20049;-89
2021/12/10 15:47:27;;;;;;;12.23;4.43;;;2.10;99.90;;;;;;12480494;28;20416;-89
2021/12/10 15:54:00;;;;;;;9.07;4.05;;;1.90;99.90;;;;;;12469630;28;20048;-89
2021/12/10 16:00:32;;;;;;;10.65;4.10;;;1.80;99.90;;;;;;12472517;28;20489;-89
2021/12/10 16:06:54;;;;;;;12.55;3.95;;;1.80;99.90;;;;;;12466441;28;20057;-89
2021/12/10 16:13:09;;;;;;;5.75;3.55;;;1.70;99.90;;;;;;12466187;28;20041;-90
2021/12/10 16:19:19;;;;;;;5.65;3.50;;;1.60;99.90;;;;;;12467253;28;20041;-90
2021/12/10 16:25:21;;;;;;;11.35;4.63;;;1.60;99.90;;;;;;12470852;28;20045;-90
2021/12/10 16:31:26;;;;;;;10.63;5.03;;;1.50;99.90;;;;;;12463360;28;20055;-91
2021/12/10 16:37:32;;;;;;;13.23;4.53;;;1.50;99.90;;;;;;12463181;28;22668;-90
2021/12/10 16:43:36;;;;;;;13.93;5.63;;;1.40;99.90;;;;;;12464358;28;20049;-90
2021/12/10 16:49:39;;;;;;;;;;;1.30;99.90;;;;;;12471536;28;20052;-89
2021/12/10 16:55:44;;;;;;;8.63;4.97;;;1.30;99.90;;;;;;12460468;28;19925;-89
2021/12/10 17:01:56;;;;;;;9.48;4.63;;;1.20;99.90;;;;;;12461903;28;20051;-89
2021/12/10 17:08:04;;;;;;;9.75;4.88;;;1.20;99.90;;;;;;12459979;28;20076;-90
2021/12/10 17:14:19;;;;;;;8.27;4.45;;;1.10;99.90;;;;;;12459808;28;20103;-88
2021/12/10 17:20:26;;;;;;;;;;;1.00;99.90;;;;;;12467189;28;20512;-88
2021/12/10 17:26:31;;;;;;;12.05;6.00;;;1.00;99.90;;;;;;12478841;28;20341;-90
2021/12/10 17:32:33;;;;;;;8.02;5.28;;;1.00;99.90;;;;;;12473196;28;20422;-90
2021/12/10 17:38:37;;;;;;;8.15;4.93;;;1.00;99.90;;;;;;12465099;28;20405;-90
2021/12/10 17:44:43;;;;;;;12.75;5.68;;;0.90;99.90;;;;;;12459077;28;20871;-88
2021/12/10 17:50:45;;;;;;;9.93;5.47;;;0.90;99.90;;;;;;12467847;28;20334;-90
2021/12/10 17:56:49;;;;;;;8.95;5.15;;;0.90;99.90;;;;;;12477268;28;20122;-88
2021/12/10 18:02:58;;;;;;;14.10;6.23;;;0.90;99.90;;;;;;12474966;28;20118;-88
2021/12/10 18:09:16;;;;;;;25.63;16.20;;;1.00;99.90;;;;;;12480961;28;20472;-89
2021/12/10 18:15:24;;;;;;;20.77;11.32;;;1.00;99.90;;;;;;12466215;28;20045;-90
2021/12/10 18:21:32;;;;;;;12.48;7.05;;;1.00;99.90;;;;;;12464649;28;20114;-88
2021/12/10 18:27:35;;;;;;;14.70;8.50;;;1.00;99.90;;;;;;12460806;28;20505;-89
2021/12/10 18:33:41;;;;;;;10.80;5.82;;;1.00;99.90;;;;;;12476660;28;20418;-88
2021/12/10 18:39:54;;;;;;;13.25;8.52;;;0.90;99.90;;;;;;12478752;28;20223;-88
2021/12/10 18:46:01;;;;;;;11.55;6.40;;;0.90;99.90;;;;;;12476654;28;20069;-88
2021/12/10 18:52:09;;;;;;;13.40;5.85;;;0.90;99.90;;;;;;12456631;28;20449;-89
2021/12/10 18:58:14;;;;;;;11.30;5.85;;;0.90;99.90;;;;;;12461363;28;20061;-88
2021/12/10 19:04:27;;;;;;;12.45;6.22;;;0.80;99.90;;;;;;12454861;28;20140;-89
2021/12/10 19:10:36;;;;;;;12.30;6.78;;;0.70;99.90;;;;;;12465483;28;20049;-90
2021/12/10 19:16:47;;;;;;;17.08;8.68;;;0.60;99.90;;;;;;12474437;28;20510;-89
2021/12/10 19:22:53;;;;;;;23.08;10.10;;;0.60;99.90;;;;;;12466295;28;20057;-90
2021/12/10 19:29:00;;;;;;;14.57;8.32;;;0.50;99.90;;;;;;12486167;28;20073;-89
2021/12/10 19:35:14;;;;;;;29.98;10.85;;;0.50;99.90;;;;;;12495718;28;20091;-90
2021/12/10 19:41:28;;;;;;;12.80;7.00;;;0.60;99.90;;;;;;12488793;28;20136;-90
2021/12/10 19:47:34;;;;;;;16.80;7.28;;;0.50;99.90;;;;;;12485898;28;20145;-89
2021/12/10 19:53:59;;;;;;;14.93;7.57;;;0.30;99.90;;;;;;12468937;28;20107;-88
2021/12/10 20:00:10;;;;;;;12.85;7.82;;;0.20;99.90;;;;;;12466015;28;20230;-90
2021/12/10 20:06:21;;;;;;;13.93;7.07;;;0.10;99.90;;;;;;12467843;28;20076;-88
2021/12/10 20:12:41;;;;;;;11.05;6.55;;;0.20;99.90;;;;;;12461565;28;20132;-88
2021/12/10 20:18:54;;;;;;;14.32;7.05;;;0.20;99.90;;;;;;12464749;28;20053;-90
2021/12/10 20:25:30;;;;;;;19.33;7.28;;;0.10;99.90;;;;;;12463857;28;20044;-90
2021/12/10 20:31:45;;;;;;;13.90;6.40;;;0.10;99.90;;;;;;12444156;28;20045;-90
2021/12/10 20:37:49;;;;;;;;;;;0.10;99.90;;;;;;12481231;28;20048;-88
2021/12/10 20:43:54;;;;;;;14.23;7.63;;;0.00;99.90;;;;;;12478240;28;20506;-90
2021/12/10 20:50:25;;;;;;;12.73;6.38;;;0.00;99.90;;;;;;12480092;28;20123;-89
2021/12/10 20:56:40;;;;;;;10.93;5.68;;;-0.10;99.90;;;;;;12460308;28;20041;-88
2021/12/10 21:02:52;;;;;;;8.75;5.03;;;-0.10;99.90;;;;;;12460635;28;20049;-88
2021/12/10 21:09:00;;;;;;;10.10;6.15;;;0.00;99.90;;;;;;12463667;28;20054;-88
2021/12/10 21:15:25;;;;;;;9.73;5.03;;;-0.10;99.90;;;;;;12468337;28;20132;-89
2021/12/10 21:21:36;;;;;;;13.10;7.25;;;-0.30;99.90;;;;;;12477160;28;20412;-88
2021/12/10 21:27:53;;;;;;;17.45;8.98;;;-0.30;99.90;;;;;;12473060;28;20406;-89
2021/12/10 21:33:59;;;;;;;9.82;6.10;;;-0.40;99.90;;;;;;12472190;28;20042;-87
2021/12/10 21:40:13;;;;;;;9.18;5.43;;;-0.40;99.90;;;;;;12461031;28;20067;-88
2021/12/10 21:46:24;;;;;;;11.02;5.50;;;-0.40;99.90;;;;;;12459163;28;20049;-88
2021/12/10 21:52:30;;;;;;;10.43;5.05;;;-0.40;99.90;;;;;;12459948;28;20128;-88
2021/12/10 21:58:43;;;;;;;11.50;4.72;;;-0.50;99.90;;;;;;12459049;28;20055;-90
2021/12/10 22:04:49;;;;;;;7.55;4.43;;;-0.40;99.90;;;;;;12463387;28;20650;-91
2021/12/10 22:11:22;;;;;;;10.40;4.55;;;-0.40;99.90;;;;;;12461312;28;20219;-90
2021/12/10 22:17:27;;;;;;;14.98;5.53;;;-0.40;99.90;;;;;;12459120;28;20057;-90
2021/12/10 22:24:16;;;;;;;10.02;5.20;;;-0.50;99.90;;;;;;12460974;28;20459;-89
2021/12/10 22:30:26;;;;;;;10.95;4.93;;;-0.60;99.90;;;;;;12445883;28;20046;-90
2021/12/10 22:36:40;;;;;;;12.32;5.55;;;-0.60;99.90;;;;;;12461453;28;20668;-91
2021/12/10 22:42:47;;;;;;;10.87;5.50;;;-0.60;99.90;;;;;;12462775;28;20060;-90
2021/12/10 22:48:54;;;;;;;10.15;5.65;;;-0.60;99.90;;;;;;12457826;28;20197;-90
2021/12/10 22:55:16;;;;;;;10.80;6.05;;;-0.60;99.90;;;;;;12469535;28;20172;-88
2021/12/10 23:01:46;;;;;;;13.43;6.53;;;-0.60;99.90;;;;;;12493033;28;20057;-88
2021/12/10 23:08:05;;;;;;;12.98;6.43;;;-0.60;99.90;;;;;;12474974;28;20053;-90
2021/12/10 23:14:12;;;;;;;15.15;7.55;;;-0.60;99.90;;;;;;12471339;28;20115;-90
2021/12/10 23:20:38;;;;;;;10.65;6.07;;;-0.40;99.90;;;;;;12478697;28;20051;-89
2021/12/10 23:26:48;;;;;;;17.48;8.80;;;-0.30;99.90;;;;;;12457276;28;20168;-90
2021/12/10 23:32:57;;;;;;;10.82;5.97;;;-0.40;99.90;;;;;;12471318;28;20119;-87
2021/12/10 23:39:08;;;;;;;13.13;5.65;;;-0.30;99.90;;;;;;12466317;28;20064;-89
2021/12/10 23:45:20;;;;;;;11.50;5.65;;;-0.20;99.90;;;;;;12469935;28;20044;-88
2021/12/10 23:51:30;;;;;;;11.88;6.82;;;-0.10;99.90;;;;;;12471491;28;20055;-89
2021/12/10 23:57:39;;;;;;;11.65;7.03;;;-0.40;99.90;;;;;;12465912;28;20053;-87
